sensor_id;sensor_type;location;lat;lon;timestamp;P1;durP1;ratioP1;P2;durP2;ratioP2
6013;SDS011;3035;49.928;8.410;2022-09-04T00:05:16;14.50;;;3.37;;
6013;SDS011;3035;49.928;8.410;2022-09-04T00:07:50;2.67;;;2.43;;
6013;SDS011;3035;49.928;8.410;2022-09-04T00:16:13;2.80;;;2.50;;
6013;SDS011;3035;49.928;8.410;2022-09-04T00:24:27;3.40;;;2.63;;
6013;SDS011;3035;49.928;8.410;2022-09-04T00:27:04;2.70;;;2.33;;
6013;SDS011;3035;49.928;8.410;2022-09-04T00:29:38;2.93;;;2.63;;
6013;SDS011;3035;49.928;8.410;2022-09-04T00:32:20;4.47;;;3.00;;
6013;SDS011;3035;49.928;8.410;2022-09-04T00:35:05;4.20;;;3.60;;
6013;SDS011;3035;49.928;8.410;2022-09-04T00:37:50;6.63;;;3.47;;
6013;SDS011;3035;49.928;8.410;2022-09-04T00:40:25;4.37;;;2.90;;
6013;SDS011;3035;49.928;8.410;2022-09-04T00:43:01;3.90;;;3.33;;
6013;SDS011;3035;49.928;8.410;2022-09-04T00:46:02;9.20;;;2.90;;
6013;SDS011;3035;49.928;8.410;2022-09-04T00:48:41;3.43;;;3.13;;
6013;SDS011;3035;49.928;8.410;2022-09-04T00:51:26;3.47;;;2.83;;
6013;SDS011;3035;49.928;8.410;2022-09-04T00:54:08;20.43;;;3.47;;
6013;SDS011;3035;49.928;8.410;2022-09-04T00:59:55;2.97;;;2.77;;
6013;SDS011;3035;49.928;8.410;2022-09-04T01:08:20;15.87;;;5.23;;
6013;SDS011;3035;49.928;8.410;2022-09-04T01:25:26;7.30;;;5.07;;
6013;SDS011;3035;49.928;8.410;2022-09-04T01:28:06;23.40;;;4.70;;
6013;SDS011;3035;49.928;8.410;2022-09-04T01:30:41;6.90;;;3.90;;
6013;SDS011;3035;49.928;8.410;2022-09-04T01:33:16;6.50;;;4.73;;
6013;SDS011;3035;49.928;8.410;2022-09-04T01:41:14;10.80;;;4.67;;
6013;SDS011;3035;49.928;8.410;2022-09-04T01:43:45;9.30;;;5.47;;
6013;SDS011;3035;49.928;8.410;2022-09-04T01:46:19;10.30;;;6.03;;
6013;SDS011;3035;49.928;8.410;2022-09-04T01:57:23;14.00;;;5.50;;
6013;SDS011;3035;49.928;8.410;2022-09-04T02:00:10;15.23;;;4.87;;
6013;SDS011;3035;49.928;8.410;2022-09-04T02:02:52;27.27;;;6.07;;
6013;SDS011;3035;49.928;8.410;2022-09-04T02:05:41;30.60;;;7.40;;
6013;SDS011;3035;49.928;8.410;2022-09-04T02:08:42;25.37;;;7.10;;
6013;SDS011;3035;49.928;8.410;2022-09-04T02:11:23;25.90;;;6.90;;
6013;SDS011;3035;49.928;8.410;2022-09-04T02:14:02;30.10;;;8.97;;
6013;SDS011;3035;49.928;8.410;2022-09-04T02:16:38;21.43;;;6.27;;
6013;SDS011;3035;49.928;8.410;2022-09-04T02:21:50;39.70;;;8.87;;
6013;SDS011;3035;49.928;8.410;2022-09-04T02:24:29;38.60;;;8.80;;
6013;SDS011;3035;49.928;8.410;2022-09-04T02:27:05;33.77;;;9.77;;
6013;SDS011;3035;49.928;8.410;2022-09-04T02:29:39;28.80;;;8.43;;
6013;SDS011;3035;49.928;8.410;2022-09-04T02:32:13;35.63;;;10.57;;
6013;SDS011;3035;49.928;8.410;2022-09-04T02:34:41;39.63;;;11.70;;
6013;SDS011;3035;49.928;8.410;2022-09-04T02:37:27;53.87;;;12.77;;
6013;SDS011;3035;49.928;8.410;2022-09-04T02:40:15;43.00;;;11.57;;
6013;SDS011;3035;49.928;8.410;2022-09-04T02:45:54;35.83;;;11.10;;
6013;SDS011;3035;49.928;8.410;2022-09-04T02:51:48;37.90;;;11.67;;
6013;SDS011;3035;49.928;8.410;2022-09-04T02:54:38;42.07;;;11.53;;
6013;SDS011;3035;49.928;8.410;2022-09-04T02:57:33;30.30;;;11.73;;
6013;SDS011;3035;49.928;8.410;2022-09-04T03:00:16;37.13;;;12.70;;
6013;SDS011;3035;49.928;8.410;2022-09-04T03:05:36;38.13;;;14.77;;
6013;SDS011;3035;49.928;8.410;2022-09-04T03:10:57;33.90;;;13.47;;
6013;SDS011;3035;49.928;8.410;2022-09-04T03:13:42;33.17;;;14.30;;
6013;SDS011;3035;49.928;8.410;2022-09-04T03:16:15;34.97;;;15.50;;
6013;SDS011;3035;49.928;8.410;2022-09-04T03:18:58;37.37;;;16.03;;
6013;SDS011;3035;49.928;8.410;2022-09-04T03:21:38;40.50;;;16.67;;
6013;SDS011;3035;49.928;8.410;2022-09-04T03:24:12;32.63;;;14.73;;
6013;SDS011;3035;49.928;8.410;2022-09-04T03:26:42;33.37;;;14.50;;
6013;SDS011;3035;49.928;8.410;2022-09-04T03:32:08;34.67;;;14.63;;
6013;SDS011;3035;49.928;8.410;2022-09-04T03:34:45;35.47;;;15.90;;
6013;SDS011;3035;49.928;8.410;2022-09-04T03:37:24;36.00;;;12.33;;
6013;SDS011;3035;49.928;8.410;2022-09-04T03:43:09;26.00;;;12.90;;
6013;SDS011;3035;49.928;8.410;2022-09-04T03:50:56;28.90;;;12.40;;
6013;SDS011;3035;49.928;8.410;2022-09-04T03:53:36;25.00;;;12.40;;
6013;SDS011;3035;49.928;8.410;2022-09-04T03:56:17;35.97;;;13.13;;
6013;SDS011;3035;49.928;8.410;2022-09-04T03:59:00;35.87;;;11.80;;
6013;SDS011;3035;49.928;8.410;2022-09-04T04:01:35;34.33;;;13.07;;
6013;SDS011;3035;49.928;8.410;2022-09-04T04:06:48;31.43;;;13.90;;
6013;SDS011;3035;49.928;8.410;2022-09-04T04:09:34;31.00;;;13.50;;
6013;SDS011;3035;49.928;8.410;2022-09-04T04:18:07;31.30;;;14.40;;
6013;SDS011;3035;49.928;8.410;2022-09-04T04:21:00;30.90;;;14.70;;
6013;SDS011;3035;49.928;8.410;2022-09-04T04:23:37;30.40;;;15.07;;
6013;SDS011;3035;49.928;8.410;2022-09-04T04:26:20;43.43;;;14.37;;
6013;SDS011;3035;49.928;8.410;2022-09-04T04:28:53;42.87;;;13.53;;
6013;SDS011;3035;49.928;8.410;2022-09-04T04:31:32;32.37;;;15.67;;
6013;SDS011;3035;49.928;8.410;2022-09-04T04:34:08;33.90;;;14.20;;
6013;SDS011;3035;49.928;8.410;2022-09-04T04:36:45;50.47;;;14.27;;
6013;SDS011;3035;49.928;8.410;2022-09-04T04:39:18;38.23;;;14.13;;
6013;SDS011;3035;49.928;8.410;2022-09-04T04:47:30;34.13;;;14.77;;
6013;SDS011;3035;49.928;8.410;2022-09-04T04:50:04;35.07;;;14.00;;
6013;SDS011;3035;49.928;8.410;2022-09-04T04:52:55;30.77;;;15.40;;
6013;SDS011;3035;49.928;8.410;2022-09-04T04:58:20;37.50;;;16.23;;
6013;SDS011;3035;49.928;8.410;2022-09-04T05:00:56;41.10;;;15.87;;
6013;SDS011;3035;49.928;8.410;2022-09-04T05:03:36;30.87;;;14.97;;
6013;SDS011;3035;49.928;8.410;2022-09-04T05:09:10;38.70;;;16.53;;
6013;SDS011;3035;49.928;8.410;2022-09-04T05:11:51;38.07;;;15.67;;
6013;SDS011;3035;49.928;8.410;2022-09-04T05:14:41;37.33;;;16.03;;
6013;SDS011;3035;49.928;8.410;2022-09-04T05:19:53;36.27;;;15.57;;
6013;SDS011;3035;49.928;8.410;2022-09-04T05:22:31;31.13;;;14.40;;
6013;SDS011;3035;49.928;8.410;2022-09-04T05:25:32;37.10;;;15.13;;
6013;SDS011;3035;49.928;8.410;2022-09-04T05:28:04;32.63;;;14.23;;
6013;SDS011;3035;49.928;8.410;2022-09-04T05:30:41;25.50;;;13.03;;
6013;SDS011;3035;49.928;8.410;2022-09-04T05:33:27;26.30;;;12.67;;
6013;SDS011;3035;49.928;8.410;2022-09-04T05:36:07;23.73;;;10.00;;
6013;SDS011;3035;49.928;8.410;2022-09-04T05:38:38;14.33;;;8.63;;
6013;SDS011;3035;49.928;8.410;2022-09-04T05:44:14;20.23;;;8.70;;
6013;SDS011;3035;49.928;8.410;2022-09-04T05:49:35;12.53;;;6.27;;
6013;SDS011;3035;49.928;8.410;2022-09-04T05:52:08;10.17;;;5.17;;
6013;SDS011;3035;49.928;8.410;2022-09-04T05:55:02;9.57;;;5.70;;
6013;SDS011;3035;49.928;8.410;2022-09-04T05:57:50;7.23;;;5.00;;
6013;SDS011;3035;49.928;8.410;2022-09-04T06:00:43;9.13;;;5.23;;
6013;SDS011;3035;49.928;8.410;2022-09-04T06:03:46;9.83;;;4.80;;
6013;SDS011;3035;49.928;8.410;2022-09-04T06:06:37;14.10;;;4.83;;
6013;SDS011;3035;49.928;8.410;2022-09-04T06:09:22;20.33;;;5.30;;
6013;SDS011;3035;49.928;8.410;2022-09-04T06:11:57;9.83;;;5.80;;
6013;SDS011;3035;49.928;8.410;2022-09-04T06:14:32;10.23;;;5.47;;
6013;SDS011;3035;49.928;8.410;2022-09-04T06:17:11;11.23;;;5.37;;
6013;SDS011;3035;49.928;8.410;2022-09-04T06:19:56;12.47;;;5.13;;
6013;SDS011;3035;49.928;8.410;2022-09-04T06:22:31;10.73;;;6.23;;
6013;SDS011;3035;49.928;8.410;2022-09-04T06:25:24;12.60;;;5.43;;
6013;SDS011;3035;49.928;8.410;2022-09-04T06:31:08;13.00;;;6.20;;
6013;SDS011;3035;49.928;8.410;2022-09-04T06:33:36;8.37;;;4.90;;
6013;SDS011;3035;49.928;8.410;2022-09-04T06:36:20;11.50;;;5.60;;
6013;SDS011;3035;49.928;8.410;2022-09-04T06:38:59;11.43;;;6.87;;
6013;SDS011;3035;49.928;8.410;2022-09-04T06:44:35;9.93;;;6.57;;
6013;SDS011;3035;49.928;8.410;2022-09-04T06:47:08;13.33;;;6.67;;
6013;SDS011;3035;49.928;8.410;2022-09-04T06:49:50;13.00;;;6.17;;
6013;SDS011;3035;49.928;8.410;2022-09-04T06:52:35;16.20;;;7.70;;
6013;SDS011;3035;49.928;8.410;2022-09-04T06:55:09;14.53;;;6.63;;
6013;SDS011;3035;49.928;8.410;2022-09-04T07:00:23;20.33;;;7.60;;
6013;SDS011;3035;49.928;8.410;2022-09-04T07:02:57;12.20;;;6.80;;
6013;SDS011;3035;49.928;8.410;2022-09-04T07:05:34;14.47;;;6.80;;
6013;SDS011;3035;49.928;8.410;2022-09-04T07:08:06;15.90;;;7.10;;
6013;SDS011;3035;49.928;8.410;2022-09-04T07:10:37;32.87;;;7.80;;
6013;SDS011;3035;49.928;8.410;2022-09-04T07:13:15;15.30;;;7.57;;
6013;SDS011;3035;49.928;8.410;2022-09-04T07:15:49;18.50;;;7.20;;
6013;SDS011;3035;49.928;8.410;2022-09-04T07:18:29;16.57;;;7.27;;
6013;SDS011;3035;49.928;8.410;2022-09-04T07:24:29;17.30;;;8.13;;
6013;SDS011;3035;49.928;8.410;2022-09-04T07:27:00;15.03;;;8.33;;
6013;SDS011;3035;49.928;8.410;2022-09-04T07:29:33;22.73;;;9.70;;
6013;SDS011;3035;49.928;8.410;2022-09-04T07:32:04;16.77;;;9.13;;
6013;SDS011;3035;49.928;8.410;2022-09-04T07:34:38;17.97;;;9.93;;
6013;SDS011;3035;49.928;8.410;2022-09-04T07:37:23;20.90;;;10.53;;
6013;SDS011;3035;49.928;8.410;2022-09-04T07:40:04;22.20;;;10.40;;
6013;SDS011;3035;49.928;8.410;2022-09-04T07:42:34;22.40;;;10.30;;
6013;SDS011;3035;49.928;8.410;2022-09-04T07:45:06;26.87;;;10.00;;
6013;SDS011;3035;49.928;8.410;2022-09-04T07:47:42;20.63;;;9.83;;
6013;SDS011;3035;49.928;8.410;2022-09-04T07:50:12;17.63;;;10.50;;
6013;SDS011;3035;49.928;8.410;2022-09-04T07:52:48;21.80;;;11.33;;
6013;SDS011;3035;49.928;8.410;2022-09-04T07:55:34;20.73;;;10.77;;
6013;SDS011;3035;49.928;8.410;2022-09-04T07:58:10;28.90;;;12.40;;
6013;SDS011;3035;49.928;8.410;2022-09-04T08:00:38;19.87;;;10.80;;
6013;SDS011;3035;49.928;8.410;2022-09-04T08:03:18;19.67;;;10.63;;
6013;SDS011;3035;49.928;8.410;2022-09-04T08:05:56;20.00;;;11.47;;
6013;SDS011;3035;49.928;8.410;2022-09-04T08:08:45;16.30;;;10.57;;
6013;SDS011;3035;49.928;8.410;2022-09-04T08:11:27;18.73;;;10.90;;
6013;SDS011;3035;49.928;8.410;2022-09-04T08:19:38;20.73;;;12.00;;
6013;SDS011;3035;49.928;8.410;2022-09-04T08:22:18;23.33;;;10.43;;
6013;SDS011;3035;49.928;8.410;2022-09-04T08:24:47;22.10;;;13.20;;
6013;SDS011;3035;49.928;8.410;2022-09-04T08:27:27;23.53;;;13.07;;
6013;SDS011;3035;49.928;8.410;2022-09-04T08:30:00;21.00;;;12.40;;
6013;SDS011;3035;49.928;8.410;2022-09-04T08:32:39;23.73;;;13.30;;
6013;SDS011;3035;49.928;8.410;2022-09-04T08:35:26;23.87;;;12.90;;
6013;SDS011;3035;49.928;8.410;2022-09-04T08:38:01;21.10;;;13.83;;
6013;SDS011;3035;49.928;8.410;2022-09-04T08:40:52;29.40;;;13.60;;
6013;SDS011;3035;49.928;8.410;2022-09-04T08:46:40;30.60;;;13.20;;
6013;SDS011;3035;49.928;8.410;2022-09-04T08:49:22;21.40;;;12.40;;
6013;SDS011;3035;49.928;8.410;2022-09-04T08:55:00;20.83;;;13.50;;
6013;SDS011;3035;49.928;8.410;2022-09-04T08:57:45;20.80;;;13.10;;
6013;SDS011;3035;49.928;8.410;2022-09-04T09:03:26;23.83;;;13.90;;
6013;SDS011;3035;49.928;8.410;2022-09-04T09:09:06;25.10;;;15.27;;
6013;SDS011;3035;49.928;8.410;2022-09-04T09:11:41;22.70;;;14.10;;
6013;SDS011;3035;49.928;8.410;2022-09-04T09:14:20;28.20;;;15.67;;
6013;SDS011;3035;49.928;8.410;2022-09-04T09:19:44;20.33;;;13.53;;
6013;SDS011;3035;49.928;8.410;2022-09-04T09:22:19;28.23;;;14.53;;
6013;SDS011;3035;49.928;8.410;2022-09-04T09:30:47;25.77;;;16.20;;
6013;SDS011;3035;49.928;8.410;2022-09-04T09:33:34;29.03;;;16.60;;
6013;SDS011;3035;49.928;8.410;2022-09-04T09:38:59;23.50;;;15.27;;
6013;SDS011;3035;49.928;8.410;2022-09-04T09:44:31;19.97;;;13.90;;
6013;SDS011;3035;49.928;8.410;2022-09-04T09:47:25;22.00;;;14.33;;
6013;SDS011;3035;49.928;8.410;2022-09-04T09:55:54;23.43;;;15.30;;
6013;SDS011;3035;49.928;8.410;2022-09-04T09:58:43;28.33;;;17.47;;
6013;SDS011;3035;49.928;8.410;2022-09-04T10:01:21;22.97;;;14.83;;
6013;SDS011;3035;49.928;8.410;2022-09-04T10:13:14;27.97;;;16.13;;
6013;SDS011;3035;49.928;8.410;2022-09-04T10:15:59;21.93;;;14.13;;
6013;SDS011;3035;49.928;8.410;2022-09-04T10:18:35;23.40;;;13.80;;
6013;SDS011;3035;49.928;8.410;2022-09-04T10:23:56;20.90;;;13.50;;
6013;SDS011;3035;49.928;8.410;2022-09-04T10:26:27;25.20;;;15.50;;
6013;SDS011;3035;49.928;8.410;2022-09-04T10:29:09;23.27;;;14.47;;
6013;SDS011;3035;49.928;8.410;2022-09-04T10:31:44;21.73;;;13.00;;
6013;SDS011;3035;49.928;8.410;2022-09-04T10:34:28;23.67;;;15.87;;
6013;SDS011;3035;49.928;8.410;2022-09-04T10:37:38;24.27;;;14.93;;
6013;SDS011;3035;49.928;8.410;2022-09-04T10:40:22;21.80;;;14.57;;
6013;SDS011;3035;49.928;8.410;2022-09-04T10:43:10;21.20;;;14.10;;
6013;SDS011;3035;49.928;8.410;2022-09-04T10:46:05;21.07;;;14.00;;
6013;SDS011;3035;49.928;8.410;2022-09-04T10:48:57;25.93;;;14.93;;
6013;SDS011;3035;49.928;8.410;2022-09-04T10:54:44;18.40;;;11.07;;
6013;SDS011;3035;49.928;8.410;2022-09-04T11:00:00;17.33;;;12.43;;
6013;SDS011;3035;49.928;8.410;2022-09-04T11:02:39;17.20;;;12.90;;
6013;SDS011;3035;49.928;8.410;2022-09-04T11:08:02;20.37;;;13.40;;
6013;SDS011;3035;49.928;8.410;2022-09-04T11:10:42;20.17;;;13.13;;
6013;SDS011;3035;49.928;8.410;2022-09-04T11:13:31;15.47;;;11.83;;
6013;SDS011;3035;49.928;8.410;2022-09-04T11:16:09;13.90;;;10.50;;
6013;SDS011;3035;49.928;8.410;2022-09-04T11:18:51;15.57;;;10.50;;
6013;SDS011;3035;49.928;8.410;2022-09-04T11:24:31;12.40;;;9.73;;
6013;SDS011;3035;49.928;8.410;2022-09-04T11:27:14;10.57;;;8.53;;
6013;SDS011;3035;49.928;8.410;2022-09-04T11:30:02;11.93;;;8.47;;
6013;SDS011;3035;49.928;8.410;2022-09-04T11:32:36;16.73;;;8.97;;
6013;SDS011;3035;49.928;8.410;2022-09-04T11:35:26;9.40;;;8.40;;
6013;SDS011;3035;49.928;8.410;2022-09-04T11:38:06;10.50;;;7.83;;
6013;SDS011;3035;49.928;8.410;2022-09-04T11:46:25;9.00;;;6.37;;
6013;SDS011;3035;49.928;8.410;2022-09-04T11:52:00;13.27;;;7.17;;
6013;SDS011;3035;49.928;8.410;2022-09-04T11:54:55;7.30;;;6.60;;
6013;SDS011;3035;49.928;8.410;2022-09-04T11:57:33;8.03;;;6.77;;
6013;SDS011;3035;49.928;8.410;2022-09-04T12:00:09;8.13;;;6.60;;
6013;SDS011;3035;49.928;8.410;2022-09-04T12:05:27;9.37;;;5.33;;
6013;SDS011;3035;49.928;8.410;2022-09-04T12:14:02;5.80;;;5.20;;
6013;SDS011;3035;49.928;8.410;2022-09-04T12:19:54;4.40;;;3.70;;
6013;SDS011;3035;49.928;8.410;2022-09-04T12:25:35;4.97;;;3.20;;
6013;SDS011;3035;49.928;8.410;2022-09-04T12:28:28;4.30;;;3.27;;
6013;SDS011;3035;49.928;8.410;2022-09-04T12:31:06;3.00;;;2.70;;
6013;SDS011;3035;49.928;8.410;2022-09-04T12:33:53;3.00;;;2.70;;
6013;SDS011;3035;49.928;8.410;2022-09-04T12:36:40;6.93;;;3.07;;
6013;SDS011;3035;49.928;8.410;2022-09-04T12:39:29;2.37;;;1.90;;
6013;SDS011;3035;49.928;8.410;2022-09-04T12:42:14;3.30;;;2.43;;
6013;SDS011;3035;49.928;8.410;2022-09-04T12:44:51;4.03;;;2.07;;
6013;SDS011;3035;49.928;8.410;2022-09-04T12:48:00;2.40;;;2.20;;
6013;SDS011;3035;49.928;8.410;2022-09-04T12:50:46;3.50;;;1.90;;
6013;SDS011;3035;49.928;8.410;2022-09-04T12:53:25;2.30;;;2.10;;
6013;SDS011;3035;49.928;8.410;2022-09-04T12:56:18;8.70;;;2.10;;
6013;SDS011;3035;49.928;8.410;2022-09-04T12:59:07;2.30;;;1.90;;
6013;SDS011;3035;49.928;8.410;2022-09-04T13:01:42;4.83;;;2.07;;
6013;SDS011;3035;49.928;8.410;2022-09-04T13:04:27;1.87;;;1.77;;
6013;SDS011;3035;49.928;8.410;2022-09-04T13:07:16;2.17;;;1.93;;
6013;SDS011;3035;49.928;8.410;2022-09-04T13:12:45;2.00;;;1.57;;
6013;SDS011;3035;49.928;8.410;2022-09-04T13:15:31;1.80;;;1.60;;
6013;SDS011;3035;49.928;8.410;2022-09-04T13:21:02;2.40;;;2.20;;
6013;SDS011;3035;49.928;8.410;2022-09-04T13:23:35;2.30;;;1.80;;
6013;SDS011;3035;49.928;8.410;2022-09-04T13:32:18;3.20;;;1.80;;
6013;SDS011;3035;49.928;8.410;2022-09-04T13:34:55;20.87;;;2.70;;
6013;SDS011;3035;49.928;8.410;2022-09-04T13:37:42;1.90;;;1.80;;
6013;SDS011;3035;49.928;8.410;2022-09-04T13:40:20;2.47;;;1.70;;
6013;SDS011;3035;49.928;8.410;2022-09-04T13:43:06;2.20;;;1.80;;
6013;SDS011;3035;49.928;8.410;2022-09-04T13:45:49;2.00;;;1.70;;
6013;SDS011;3035;49.928;8.410;2022-09-04T13:48:30;2.53;;;2.07;;
6013;SDS011;3035;49.928;8.410;2022-09-04T13:51:00;1.93;;;1.43;;
6013;SDS011;3035;49.928;8.410;2022-09-04T13:53:39;2.83;;;1.60;;
6013;SDS011;3035;49.928;8.410;2022-09-04T13:56:13;2.47;;;1.70;;
6013;SDS011;3035;49.928;8.410;2022-09-04T13:58:40;1.90;;;1.80;;
6013;SDS011;3035;49.928;8.410;2022-09-04T14:01:12;2.67;;;1.47;;
6013;SDS011;3035;49.928;8.410;2022-09-04T14:03:44;1.80;;;1.50;;
6013;SDS011;3035;49.928;8.410;2022-09-04T14:06:19;1.43;;;1.33;;
6013;SDS011;3035;49.928;8.410;2022-09-04T14:08:47;2.70;;;1.70;;
6013;SDS011;3035;49.928;8.410;2022-09-04T14:11:22;5.30;;;1.53;;
6013;SDS011;3035;49.928;8.410;2022-09-04T14:16:48;1.33;;;1.23;;
6013;SDS011;3035;49.928;8.410;2022-09-04T14:19:22;1.47;;;1.37;;
6013;SDS011;3035;49.928;8.410;2022-09-04T14:22:09;1.20;;;1.10;;
6013;SDS011;3035;49.928;8.410;2022-09-04T14:24:43;2.90;;;1.27;;
6013;SDS011;3035;49.928;8.410;2022-09-04T14:27:30;1.90;;;1.30;;
6013;SDS011;3035;49.928;8.410;2022-09-04T14:30:15;1.50;;;1.13;;
6013;SDS011;3035;49.928;8.410;2022-09-04T14:32:47;1.40;;;1.20;;
6013;SDS011;3035;49.928;8.410;2022-09-04T14:35:25;2.20;;;1.50;;
6013;SDS011;3035;49.928;8.410;2022-09-04T14:41:01;1.47;;;1.37;;
6013;SDS011;3035;49.928;8.410;2022-09-04T14:43:33;1.50;;;1.40;;
6013;SDS011;3035;49.928;8.410;2022-09-04T14:48:48;3.97;;;1.73;;
6013;SDS011;3035;49.928;8.410;2022-09-04T14:51:28;1.70;;;1.60;;
6013;SDS011;3035;49.928;8.410;2022-09-04T14:54:02;1.60;;;1.50;;
6013;SDS011;3035;49.928;8.410;2022-09-04T14:56:31;2.20;;;1.90;;
6013;SDS011;3035;49.928;8.410;2022-09-04T14:59:05;1.87;;;1.77;;
6013;SDS011;3035;49.928;8.410;2022-09-04T15:04:46;2.37;;;2.17;;
6013;SDS011;3035;49.928;8.410;2022-09-04T15:07:23;2.10;;;1.60;;
6013;SDS011;3035;49.928;8.410;2022-09-04T15:10:05;4.67;;;1.80;;
6013;SDS011;3035;49.928;8.410;2022-09-04T15:12:41;3.10;;;1.73;;
6013;SDS011;3035;49.928;8.410;2022-09-04T15:15:14;1.97;;;1.80;;
6013;SDS011;3035;49.928;8.410;2022-09-04T15:17:47;2.33;;;2.00;;
6013;SDS011;3035;49.928;8.410;2022-09-04T15:20:19;4.90;;;2.00;;
6013;SDS011;3035;49.928;8.410;2022-09-04T15:22:48;12.13;;;2.80;;
6013;SDS011;3035;49.928;8.410;2022-09-04T15:28:15;2.43;;;1.87;;
6013;SDS011;3035;49.928;8.410;2022-09-04T15:31:08;2.30;;;1.83;;
6013;SDS011;3035;49.928;8.410;2022-09-04T15:33:43;3.27;;;2.00;;
6013;SDS011;3035;49.928;8.410;2022-09-04T15:36:15;2.00;;;1.80;;
6013;SDS011;3035;49.928;8.410;2022-09-04T15:38:47;2.37;;;1.90;;
6013;SDS011;3035;49.928;8.410;2022-09-04T15:41:19;5.63;;;1.70;;
6013;SDS011;3035;49.928;8.410;2022-09-04T15:44:09;3.37;;;2.13;;
6013;SDS011;3035;49.928;8.410;2022-09-04T15:47:02;2.33;;;2.00;;
6013;SDS011;3035;49.928;8.410;2022-09-04T15:49:39;2.30;;;2.10;;
6013;SDS011;3035;49.928;8.410;2022-09-04T15:52:17;2.73;;;2.00;;
6013;SDS011;3035;49.928;8.410;2022-09-04T15:57:41;2.80;;;2.00;;
6013;SDS011;3035;49.928;8.410;2022-09-04T16:00:09;2.10;;;1.80;;
6013;SDS011;3035;49.928;8.410;2022-09-04T16:02:41;1.70;;;1.53;;
6013;SDS011;3035;49.928;8.410;2022-09-04T16:05:14;2.33;;;2.13;;
6013;SDS011;3035;49.928;8.410;2022-09-04T16:13:44;1.90;;;1.70;;
6013;SDS011;3035;49.928;8.410;2022-09-04T16:16:18;2.30;;;1.80;;
6013;SDS011;3035;49.928;8.410;2022-09-04T16:18:49;2.13;;;1.80;;
6013;SDS011;3035;49.928;8.410;2022-09-04T16:24:11;2.57;;;1.60;;
6013;SDS011;3035;49.928;8.410;2022-09-04T16:26:38;3.27;;;1.80;;
6013;SDS011;3035;49.928;8.410;2022-09-04T16:29:11;1.80;;;1.60;;
6013;SDS011;3035;49.928;8.410;2022-09-04T16:31:49;2.13;;;1.67;;
6013;SDS011;3035;49.928;8.410;2022-09-04T16:37:10;3.40;;;2.20;;
6013;SDS011;3035;49.928;8.410;2022-09-04T16:39:45;2.30;;;1.50;;
6013;SDS011;3035;49.928;8.410;2022-09-04T16:42:14;2.23;;;2.03;;
6013;SDS011;3035;49.928;8.410;2022-09-04T16:44:48;2.30;;;1.73;;
6013;SDS011;3035;49.928;8.410;2022-09-04T16:47:44;1.63;;;1.50;;
6013;SDS011;3035;49.928;8.410;2022-09-04T16:50:20;2.33;;;1.93;;
6013;SDS011;3035;49.928;8.410;2022-09-04T16:55:50;1.67;;;1.57;;
6013;SDS011;3035;49.928;8.410;2022-09-04T17:01:13;1.83;;;1.63;;
6013;SDS011;3035;49.928;8.410;2022-09-04T17:06:48;2.53;;;1.73;;
6013;SDS011;3035;49.928;8.410;2022-09-04T17:09:22;1.80;;;1.43;;
6013;SDS011;3035;49.928;8.410;2022-09-04T17:11:51;4.40;;;1.70;;
6013;SDS011;3035;49.928;8.410;2022-09-04T17:14:20;2.70;;;2.00;;
6013;SDS011;3035;49.928;8.410;2022-09-04T17:16:52;6.37;;;2.03;;
6013;SDS011;3035;49.928;8.410;2022-09-04T17:19:21;3.67;;;2.20;;
6013;SDS011;3035;49.928;8.410;2022-09-04T17:21:56;2.33;;;1.97;;
6013;SDS011;3035;49.928;8.410;2022-09-04T17:24:40;11.03;;;1.77;;
6013;SDS011;3035;49.928;8.410;2022-09-04T17:27:14;1.80;;;1.40;;
6013;SDS011;3035;49.928;8.410;2022-09-04T17:29:48;1.90;;;1.80;;
6013;SDS011;3035;49.928;8.410;2022-09-04T17:32:22;2.33;;;2.03;;
6013;SDS011;3035;49.928;8.410;2022-09-04T17:34:52;10.40;;;2.10;;
6013;SDS011;3035;49.928;8.410;2022-09-04T17:37:21;2.37;;;1.63;;
6013;SDS011;3035;49.928;8.410;2022-09-04T17:39:52;3.40;;;2.30;;
6013;SDS011;3035;49.928;8.410;2022-09-04T17:42:25;2.13;;;1.77;;
6013;SDS011;3035;49.928;8.410;2022-09-04T17:45:08;2.50;;;1.70;;
6013;SDS011;3035;49.928;8.410;2022-09-04T17:50:34;1.97;;;1.67;;
6013;SDS011;3035;49.928;8.410;2022-09-04T17:53:04;2.00;;;1.80;;
6013;SDS011;3035;49.928;8.410;2022-09-04T17:55:36;2.77;;;1.90;;
6013;SDS011;3035;49.928;8.410;2022-09-04T17:58:08;2.73;;;2.00;;
6013;SDS011;3035;49.928;8.410;2022-09-04T18:00:58;1.90;;;1.70;;
6013;SDS011;3035;49.928;8.410;2022-09-04T18:03:28;3.03;;;2.23;;
6013;SDS011;3035;49.928;8.410;2022-09-04T18:06:03;4.40;;;2.10;;
6013;SDS011;3035;49.928;8.410;2022-09-04T18:08:33;4.70;;;2.50;;
6013;SDS011;3035;49.928;8.410;2022-09-04T18:11:06;3.27;;;2.80;;
6013;SDS011;3035;49.928;8.410;2022-09-04T18:13:57;4.27;;;2.60;;
6013;SDS011;3035;49.928;8.410;2022-09-04T18:19:31;5.07;;;2.80;;
6013;SDS011;3035;49.928;8.410;2022-09-04T18:22:19;5.23;;;2.90;;
6013;SDS011;3035;49.928;8.410;2022-09-04T18:24:57;10.07;;;3.37;;
6013;SDS011;3035;49.928;8.410;2022-09-04T18:27:29;4.63;;;3.40;;
6013;SDS011;3035;49.928;8.410;2022-09-04T18:30:13;3.27;;;2.97;;
6013;SDS011;3035;49.928;8.410;2022-09-04T18:35:29;6.03;;;3.30;;
6013;SDS011;3035;49.928;8.410;2022-09-04T18:38:09;6.73;;;2.93;;
6013;SDS011;3035;49.928;8.410;2022-09-04T18:40:39;4.50;;;2.97;;
6013;SDS011;3035;49.928;8.410;2022-09-04T18:43:13;3.80;;;2.90;;
6013;SDS011;3035;49.928;8.410;2022-09-04T18:45:41;5.30;;;3.10;;
6013;SDS011;3035;49.928;8.410;2022-09-04T18:48:10;9.10;;;3.10;;
6013;SDS011;3035;49.928;8.410;2022-09-04T18:50:39;6.20;;;2.97;;
6013;SDS011;3035;49.928;8.410;2022-09-04T18:53:27;4.10;;;2.67;;
6013;SDS011;3035;49.928;8.410;2022-09-04T18:56:18;5.63;;;3.70;;
6013;SDS011;3035;49.928;8.410;2022-09-04T18:58:50;3.63;;;2.80;;
6013;SDS011;3035;49.928;8.410;2022-09-04T19:01:26;7.33;;;3.67;;
6013;SDS011;3035;49.928;8.410;2022-09-04T19:06:52;4.70;;;3.70;;
6013;SDS011;3035;49.928;8.410;2022-09-04T19:09:26;8.10;;;3.90;;
6013;SDS011;3035;49.928;8.410;2022-09-04T19:11:55;7.13;;;4.43;;
6013;SDS011;3035;49.928;8.410;2022-09-04T19:14:25;13.67;;;6.73;;
6013;SDS011;3035;49.928;8.410;2022-09-04T19:16:54;6.47;;;5.63;;
6013;SDS011;3035;49.928;8.410;2022-09-04T19:19:29;11.90;;;4.87;;
6013;SDS011;3035;49.928;8.410;2022-09-04T19:21:56;12.80;;;4.67;;
6013;SDS011;3035;49.928;8.410;2022-09-04T19:24:35;6.50;;;4.60;;
6013;SDS011;3035;49.928;8.410;2022-09-04T19:27:11;6.07;;;4.77;;
6013;SDS011;3035;49.928;8.410;2022-09-04T19:29:44;6.80;;;3.53;;
6013;SDS011;3035;49.928;8.410;2022-09-04T19:32:21;8.20;;;4.80;;
6013;SDS011;3035;49.928;8.410;2022-09-04T19:37:44;23.60;;;4.93;;
6013;SDS011;3035;49.928;8.410;2022-09-04T19:40:27;5.67;;;4.03;;
6013;SDS011;3035;49.928;8.410;2022-09-04T19:42:59;10.47;;;4.23;;
6013;SDS011;3035;49.928;8.410;2022-09-04T19:45:55;13.17;;;5.07;;
6013;SDS011;3035;49.928;8.410;2022-09-04T19:48:25;11.50;;;3.80;;
6013;SDS011;3035;49.928;8.410;2022-09-04T19:51:02;19.93;;;4.30;;
6013;SDS011;3035;49.928;8.410;2022-09-04T19:53:32;6.40;;;4.53;;
6013;SDS011;3035;49.928;8.410;2022-09-04T19:56:02;5.80;;;4.43;;
6013;SDS011;3035;49.928;8.410;2022-09-04T19:58:50;6.10;;;3.90;;
6013;SDS011;3035;49.928;8.410;2022-09-04T20:01:20;9.17;;;4.50;;
6013;SDS011;3035;49.928;8.410;2022-09-04T20:03:47;11.57;;;4.90;;
6013;SDS011;3035;49.928;8.410;2022-09-04T20:06:18;18.50;;;4.70;;
6013;SDS011;3035;49.928;8.410;2022-09-04T20:08:48;10.03;;;4.73;;
6013;SDS011;3035;49.928;8.410;2022-09-04T20:11:18;6.57;;;4.13;;
6013;SDS011;3035;49.928;8.410;2022-09-04T20:13:49;11.37;;;4.57;;
6013;SDS011;3035;49.928;8.410;2022-09-04T20:19:06;7.00;;;3.80;;
6013;SDS011;3035;49.928;8.410;2022-09-04T20:21:45;5.47;;;3.80;;
6013;SDS011;3035;49.928;8.410;2022-09-04T20:24:17;3.83;;;3.20;;
6013;SDS011;3035;49.928;8.410;2022-09-04T20:26:54;3.80;;;2.93;;
6013;SDS011;3035;49.928;8.410;2022-09-04T20:29:23;7.47;;;3.40;;
6013;SDS011;3035;49.928;8.410;2022-09-04T20:31:59;5.40;;;3.50;;
6013;SDS011;3035;49.928;8.410;2022-09-04T20:34:48;8.10;;;3.37;;
6013;SDS011;3035;49.928;8.410;2022-09-04T20:40:20;5.77;;;3.40;;
6013;SDS011;3035;49.928;8.410;2022-09-04T20:43:04;6.67;;;3.20;;
6013;SDS011;3035;49.928;8.410;2022-09-04T20:45:47;8.77;;;4.10;;